Latest Weather Observations for Winton

IDQ60801

Issued at 3:02 pm EST Monday 30 March 2020 (issued every 10 minutes, with the page automatically refreshed every 10 minutes)

About weather observations | Map of weather stations | Latest weather observations for QLD | Other Formats
Station Details ID: 037039 Name: WINTON AIRPORT Lat: -22.36 Lon: 143.08 Height: 192.2 m
Data from the previous 72 hours. | See also: Recent months at Winton
Date/Time
EST
Temp
°C
App
Temp
°C
Dew
Point
°C
Rel
Hum
%
Delta-T
°C
Wind Press
QNH
hPa
Press
MSL
hPa
Rain since
9am
mm
Dir  Spd
km/h
Gust
km/h
Spd
kts
Gust
kts
30/03:00pm 36.6 34.2 12.8 24 14.6 ESE 17 30 9 16 1010.9 1009.6 -
30/02:30pm 36.1 - 12.3 24 14.4 - - - - - 1011.2 1009.9 0.0
30/02:00pm 35.7 33.3 12.6 25 14.0 SE 17 26 9 14 1011.5 1010.2 0.0
30/01:30pm 35.4 32.9 12.4 25 13.9 ESE 17 28 9 15 1011.8 1010.5 0.0
30/01:00pm 35.4 34.4 13.5 26 13.5 E 11 19 6 10 1012.3 1011.0 0.0
30/12:30pm 34.6 34.7 14.5 30 12.5 ENE 7 15 4 8 1012.9 1011.6 0.0
30/12:00pm 34.0 33.5 15.0 32 11.9 NE 11 20 6 11 1013.4 1012.1 0.0
30/11:30am 33.9 33.7 15.8 33 11.4 ENE 11 20 6 11 1014.0 1012.7 0.0
30/11:00am 32.3 32.1 16.6 39 10.0 NNE 13 24 7 13 1014.5 1013.2 0.0
30/10:30am 31.9 30.8 17.4 42 9.3 ENE 19 30 10 16 1014.9 1013.6 0.0
30/10:00am 31.3 31.0 18.3 46 8.4 NE 17 26 9 14 1015.0 1013.7 0.0
30/09:30am 30.3 29.5 18.4 49 7.7 NE 20 28 11 15 1015.1 1013.8 0.0
30/09:00am 29.0 27.8 18.4 52 6.8 NE 22 30 12 16 1014.9 1013.6 0.0
30/08:30am 27.4 26.9 17.8 55 6.1 NE 17 24 9 13 1014.8 1013.5 0.0
30/08:00am 25.9 26.5 16.7 57 5.7 NE 9 13 5 7 1014.5 1013.2 0.0
30/07:30am 22.5 23.0 14.1 59 5.0 SSE 4 4 2 2 1014.1 1012.8 0.0
30/07:00am 20.4 19.5 12.6 61 4.4 NE 9 11 5 6 1013.5 1012.2 0.0
30/06:30am 20.6 19.3 12.6 60 4.6 NNE 11 11 6 6 1012.9 1011.6 0.0
30/06:00am 21.0 19.8 12.9 60 4.6 NNE 11 13 6 7 1012.5 1011.2 0.0
30/05:30am 20.4 18.7 12.4 60 4.5 NE 13 13 7 7 1012.1 1010.8 0.0
30/05:00am 21.1 20.5 12.3 57 5.0 NE 7 9 4 5 1012.0 1010.7 0.0
30/04:30am 21.9 21.4 12.5 55 5.4 ENE 7 7 4 4 1011.8 1010.5 0.0
30/04:00am 22.4 22.1 12.6 54 5.6 ENE 6 7 3 4 1011.8 1010.5 0.0
30/03:30am 22.5 22.0 12.7 54 5.6 ENE 7 7 4 4 1011.8 1010.5 0.0
30/03:00am 22.4 22.1 12.6 54 5.6 ENE 6 7 3 4 1012.0 1010.7 0.0
30/02:30am 22.4 21.4 12.4 53 5.7 NE 9 11 5 6 1011.9 1010.6 0.0
30/02:00am 22.1 21.0 12.1 53 5.7 ENE 9 9 5 5 1012.2 1010.9 0.0
30/01:30am 22.8 21.7 12.1 51 6.1 E 9 9 5 5 1012.5 1011.2 0.0
30/01:00am 23.2 22.1 11.9 49 6.4 ESE 9 11 5 6 1012.6 1011.3 0.0
30/12:30am 23.8 22.7 12.1 48 6.7 E 9 11 5 6 1012.7 1011.4 0.0
30/12:00am 24.1 22.8 12.4 48 6.8 E 11 11 6 6 1012.8 1011.5 0.0
 
Date/Time
EST
Temp
°C
App
Temp
°C
Dew
Point
°C
Rel
Hum
%
Delta-T
°C
Wind Press
QNH
hPa
Press
MSL
hPa
Rain since
9am
mm
Dir  Spd
km/h
Gust
km/h
Spd
kts
Gust
kts
29/11:30pm 24.5 23.2 12.5 47 6.9 ESE 11 13 6 7 1013.1 1011.8 0.0
29/11:00pm 24.4 23.1 12.4 47 6.9 ESE 11 11 6 6 1013.3 1012.0 0.0
29/10:30pm 24.9 23.9 12.2 45 7.3 ESE 9 11 5 6 1013.6 1012.3 0.0
29/10:00pm 26.0 24.6 12.1 42 8.0 SE 11 13 6 7 1013.5 1012.2 0.0
29/09:30pm 27.1 25.4 12.3 39 8.6 SE 13 13 7 7 1013.4 1012.1 0.0
29/09:00pm 27.2 25.7 12.0 38 8.8 SE 11 13 6 7 1013.0 1011.7 0.0
29/08:30pm 27.8 26.4 12.2 38 9.1 SE 11 13 6 7 1012.6 1011.3 0.0
29/08:00pm 28.6 27.7 12.5 37 9.5 SE 9 11 5 6 1012.3 1011.0 0.0
29/07:30pm 29.2 27.8 12.2 35 10.0 SE 11 11 6 6 1011.9 1010.6 0.0
29/07:00pm 30.4 29.4 12.3 33 10.7 SE 9 13 5 7 1011.6 1010.3 0.0
29/06:30pm 32.5 30.7 12.2 29 12.1 SE 13 17 7 9 1011.1 1009.8 0.0
29/06:00pm 33.7 31.5 12.1 27 12.9 ESE 15 24 8 13 1010.7 1009.3 0.0
29/05:30pm 34.9 31.9 12.0 25 13.7 SE 19 26 10 14 1010.3 1009.0 0.0
29/05:00pm 34.9 32.3 12.0 25 13.8 ESE 17 26 9 14 1010.3 1009.0 0.0
29/04:30pm 35.4 32.5 12.4 25 13.9 ESE 19 26 10 14 1010.2 1008.9 0.0
29/04:00pm 35.4 - 12.4 25 13.9 - - - - - 1010.3 1009.0 0.0
29/03:30pm 35.3 - 12.3 25 13.9 - - - - - 1010.6 1009.2 0.0
29/03:00pm 35.4 33.7 12.4 25 13.9 ENE 13 20 7 11 1010.9 1009.6 0.0
29/02:30pm 35.0 33.0 13.8 28 13.1 SE 17 28 9 15 1011.3 1010.0 0.0
29/02:00pm 34.4 33.1 13.8 29 12.7 NE 13 24 7 13 1011.6 1010.3 0.0
29/01:30pm 35.1 34.6 14.9 29 12.7 E 11 19 6 10 1012.2 1010.9 0.0
29/01:00pm 34.0 33.4 14.5 31 12.1 SE 11 33 6 18 1012.8 1011.5 0.0
29/12:30pm 34.0 32.7 15.9 33 11.5 E 17 32 9 17 1013.2 1011.9 0.0
29/12:00pm 33.6 31.8 15.6 34 11.3 E 19 28 10 15 1013.6 1012.3 0.0
29/11:30am 32.8 31.8 16.6 38 10.3 E 17 26 9 14 1014.0 1012.7 0.0
29/11:00am 31.9 30.3 16.6 39 9.7 NE 20 35 11 19 1014.3 1013.0 0.0
29/10:30am 31.1 29.5 17.4 44 8.8 NE 22 35 12 19 1014.8 1013.5 0.0
29/10:00am 30.0 28.0 17.5 47 8.0 NE 24 35 13 19 1014.9 1013.6 0.0
29/09:30am 29.3 27.1 17.8 50 7.4 ENE 26 35 14 19 1014.9 1013.6 0.0
29/09:00am 28.3 26.2 18.1 54 6.5 NE 26 37 14 20 1014.9 1013.6 0.0
29/08:30am 27.4 25.7 18.1 57 5.9 NE 24 30 13 16 1014.7 1013.4 0.0
29/08:00am 25.9 25.3 17.5 59 5.3 ENE 17 24 9 13 1014.4 1013.1 0.0
29/07:30am 21.8 22.6 13.7 60 4.7 ESE 2 4 1 2 1013.9 1012.6 0.0
29/07:00am 20.1 20.3 13.1 64 4.0 SE 4 6 2 3 1013.4 1012.1 0.0
29/06:30am 18.9 18.4 12.6 67 3.6 E 7 9 4 5 1012.9 1011.6 0.0
29/06:00am 19.1 17.8 12.6 66 3.7 ESE 11 11 6 6 1012.6 1011.3 0.0
29/05:30am 19.7 18.8 12.7 64 4.0 E 9 11 5 6 1012.3 1011.0 0.0
29/05:00am 20.1 18.8 12.6 62 4.3 E 11 11 6 6 1012.2 1010.9 0.0
29/04:30am 20.4 19.1 12.4 60 4.5 E 11 13 6 7 1012.0 1010.7 0.0
29/04:00am 21.5 21.2 12.6 57 5.1 ESE 6 6 3 3 1011.6 1010.3 0.0
29/03:30am 21.3 20.7 12.4 57 5.1 E 7 9 4 5 1011.6 1010.3 0.0
29/03:00am 21.6 20.3 12.5 56 5.2 E 11 13 6 7 1011.6 1010.3 0.0
29/02:30am 21.8 - 12.6 56 5.3 - - - - - 1011.9 1010.6 0.0
29/02:00am 21.9 - 12.5 55 5.4 - - - - - 1012.0 1010.7 0.0
29/01:30am 22.8 21.9 12.7 53 5.8 ESE 9 13 5 7 1012.2 1010.9 0.0
29/01:00am 23.2 21.9 12.5 51 6.2 ESE 11 11 6 6 1012.5 1011.2 0.0
29/12:30am 24.3 22.9 12.3 47 6.9 ESE 11 13 6 7 1012.7 1011.4 0.0
29/12:00am 24.3 23.0 12.6 48 6.8 ESE 11 13 6 7 1012.8 1011.5 0.0
 
Date/Time
EST
Temp
°C
App
Temp
°C
Dew
Point
°C
Rel
Hum
%
Delta-T
°C
Wind Press
QNH
hPa
Press
MSL
hPa
Rain since
9am
mm
Dir  Spd
km/h
Gust
km/h
Spd
kts
Gust
kts
28/11:30pm 24.1 23.2 12.7 49 6.6 SE 9 11 5 6 1012.8 1011.5 0.0
28/11:00pm 24.0 23.0 12.3 48 6.7 ESE 9 11 5 6 1013.0 1011.7 0.0
28/10:30pm 25.0 24.0 12.2 44 7.4 SE 9 11 5 6 1013.0 1011.7 0.0
28/10:00pm 26.2 24.8 12.3 42 8.1 ESE 11 13 6 7 1012.9 1011.6 0.0
28/09:30pm 26.9 25.2 12.5 40 8.4 ESE 13 15 7 8 1012.8 1011.5 0.0
28/09:00pm 27.1 25.9 12.7 41 8.5 ESE 11 13 6 7 1012.6 1011.3 0.0
28/08:30pm 28.1 26.8 12.5 38 9.2 ESE 11 13 6 7 1012.3 1011.0 0.0
28/08:00pm 29.8 28.2 12.7 35 10.2 ESE 13 17 7 9 1011.9 1010.6 0.0
28/07:30pm 31.0 28.3 12.8 32 10.9 ESE 19 24 10 13 1011.6 1010.3 0.0
28/07:00pm 30.8 29.0 12.2 32 11.0 ESE 13 17 7 9 1011.1 1009.8 0.0
28/06:30pm 32.2 29.7 12.4 30 11.8 ESE 17 22 9 12 1010.9 1009.6 0.0
28/06:00pm 33.3 30.3 11.8 27 12.8 ESE 19 24 10 13 1010.6 1009.2 0.0
28/05:30pm 34.2 31.4 12.5 27 13.1 E 19 30 10 16 1010.3 1009.0 0.0
28/05:00pm 34.4 31.3 12.1 26 13.4 ESE 20 30 11 16 1010.3 1009.0 0.0
28/04:30pm 35.2 32.3 12.8 26 13.6 ESE 20 35 11 19 1010.1 1008.8 0.0
28/04:00pm 35.1 31.8 12.7 26 13.6 ESE 22 32 12 17 1010.6 1009.2 0.0
28/03:30pm 34.5 32.0 12.2 26 13.4 ESE 17 22 9 12 1010.8 1009.5 0.0
28/03:00pm 35.6 33.2 13.7 27 13.5 E 19 30 10 16 1011.0 1009.7 0.0
28/02:30pm 34.4 32.4 12.7 27 13.1 E 15 26 8 14 1011.5 1010.2 0.0
28/02:00pm 34.5 33.3 13.9 29 12.7 ESE 13 30 7 16 1012.0 1010.7 0.0
28/01:30pm 34.7 33.1 14.0 28 12.8 E 15 26 8 14 1012.4 1011.1 0.0
28/01:00pm 34.1 33.1 15.5 32 11.7 ENE 15 32 8 17 1012.9 1011.6 0.0
28/12:30pm 34.3 32.8 16.2 34 11.5 ENE 19 33 10 18 1013.6 1012.3 0.0
28/12:00pm 33.0 31.4 15.9 35 10.8 E 19 30 10 16 1014.2 1012.9 0.0
28/11:30am 31.9 30.3 16.6 39 9.7 ENE 20 33 11 18 1014.7 1013.4 0.0
28/11:00am 32.3 31.4 18.1 42 9.2 ENE 20 37 11 20 1015.1 1013.8 0.0
28/10:30am 31.0 - 18.0 45 8.4 - - - - - 1015.5 1014.3 0.0
28/10:00am 30.3 - 17.7 46 8.1 - - - - - 1015.6 1014.4 0.0
28/09:30am 29.1 27.6 18.5 52 6.9 ENE 24 33 13 18 1015.8 1014.6 0.0
28/09:00am 28.2 26.7 18.6 56 6.2 ENE 24 33 13 18 1015.7 1014.5 0.0
28/08:30am 27.5 25.6 18.5 58 5.8 ENE 26 37 14 20 1015.3 1014.0 0.0
28/08:17am 26.8 24.8 18.4 60 5.4 E 26 43 14 23 1015.1 1013.8 0.0
28/08:00am 25.9 25.2 17.3 59 5.4 E 17 22 9 12 1014.9 1013.6 0.0
28/07:30am 24.3 24.5 16.8 63 4.7 ESE 11 15 6 8 1014.5 1013.2 0.0
28/07:00am 22.3 22.1 15.6 66 4.0 ESE 11 13 6 7 1014.0 1012.7 0.0
28/06:30am 21.9 22.2 15.0 65 4.1 SE 7 9 4 5 1013.6 1012.3 0.0
28/06:00am 22.1 21.5 14.7 63 4.4 ESE 11 11 6 6 1013.1 1011.8 0.0
28/05:30am 22.0 22.0 14.1 61 4.6 E 7 9 4 5 1012.8 1011.5 0.0
28/05:00am 22.3 22.5 14.2 60 4.8 E 6 7 3 4 1012.6 1011.3 0.0
28/04:30am 22.4 21.9 13.7 58 5.1 ENE 9 11 5 6 1012.2 1010.9 0.0
28/04:00am 22.9 22.2 14.2 58 5.1 ESE 11 13 6 7 1012.2 1010.9 0.0
28/03:30am 22.8 21.9 13.6 56 5.4 ESE 11 13 6 7 1012.0 1010.7 0.0
28/03:00am 23.0 22.8 13.5 55 5.6 E 7 9 4 5 1012.1 1010.8 0.0
28/02:30am 23.9 23.6 13.4 51 6.2 ESE 7 9 4 5 1012.3 1011.0 0.0
28/02:00am 25.1 24.5 13.6 49 6.8 SE 9 11 5 6 1012.6 1011.3 0.0
28/01:30am 24.5 24.7 13.1 49 6.7 SE 4 6 2 3 1012.6 1011.3 0.0
28/01:00am 25.8 25.4 13.0 45 7.5 ESE 7 9 4 5 1012.6 1011.3 0.0
28/12:30am 26.7 26.0 13.1 43 8.0 E 9 13 5 7 1012.8 1011.5 0.0
28/12:00am 26.5 26.2 13.3 44 7.8 ESE 7 13 4 7 1012.9 1011.6 0.0
 
Date/Time
EST
Temp
°C
App
Temp
°C
Dew
Point
°C
Rel
Hum
%
Delta-T
°C
Wind Press
QNH
hPa
Press
MSL
hPa
Rain since
9am
mm
Dir  Spd
km/h
Gust
km/h
Spd
kts
Gust
kts
27/11:30pm 27.1 26.8 12.7 41 8.5 ENE 6 6 3 3 1013.2 1011.9 0.0
27/11:00pm 27.7 27.9 12.9 40 8.7 NE 4 6 2 3 1013.4 1012.1 0.0
27/10:30pm 27.7 27.9 12.9 40 8.7 NE 4 7 2 4 1013.5 1012.2 0.0
27/10:00pm 28.1 28.1 13.6 41 8.7 ENE 6 6 3 3 1013.5 1012.2 0.0
27/09:30pm 28.9 29.1 13.2 38 9.4 SE 4 6 2 3 1013.6 1012.3 0.0
27/09:00pm 29.4 28.7 13.2 37 9.7 SE 9 13 5 7 1013.3 1012.0 0.0
27/08:30pm 29.8 28.4 13.5 36 9.8 SE 13 17 7 9 1013.0 1011.7 0.0
27/08:00pm 30.1 28.6 13.0 35 10.2 SE 13 19 7 10 1012.7 1011.4 0.0
27/07:30pm 30.1 29.2 12.5 34 10.4 ESE 9 11 5 6 1012.2 1010.9 0.0
27/07:00pm 31.6 30.6 12.4 31 11.4 SE 9 11 5 6 1011.9 1010.6 0.0
27/06:30pm 32.8 31.2 12.9 29 12.0 SE 13 15 7 8 1011.6 1010.3 0.0
27/06:00pm 34.0 31.5 12.4 27 13.0 ESE 17 20 9 11 1011.3 1010.0 0.0
27/05:30pm 34.4 31.8 12.1 26 13.4 ESE 17 20 9 11 1011.1 1009.8 0.0
27/05:00pm 35.7 33.9 12.0 24 14.3 E 13 20 7 11 1011.0 1009.7 0.0
27/04:30pm 34.7 34.1 12.4 26 13.5 SSE 7 15 4 8 1011.0 1009.7 0.0
27/04:00pm 34.9 34.0 12.5 25 13.6 E 9 17 5 9 1011.2 1009.9 0.0
27/03:30pm 34.2 33.1 13.1 28 12.8 E 11 24 6 13 1011.5 1010.2 0.0

Other formats

Comma delimited format used in spreadsheet applications
http://www.bom.gov.au/fwo/IDQ60801/IDQ60801.94342.axf

JavaScript Object Notation format (JSON) in row-major order
http://www.bom.gov.au/fwo/IDQ60801/IDQ60801.94342.json

Data quality

Most of these data are generated automatically and are frequently updated. Quality checks on data are not normally performed. It is possible for incorrect values to appear. Refer to information at About Latest Weather Observations and please check the disclaimer before using these data.